TimeMST,TemperatureF,Dew PointF,Humidity,Sea Level PressureIn,VisibilityMPH,Wind Direction,Wind SpeedMPH,Gust SpeedMPH,PrecipitationIn,Events,Conditions,WindDirDegrees,DateUTC
12:52 AM,19.0,8.1,62,30.33,10.0,NW,10.4,-,N/A,,Partly Cloudy,320,2013-03-05 07:52:00
1:52 AM,17.1,8.1,68,30.35,10.0,NW,11.5,-,N/A,,Clear,310,2013-03-05 08:52:00
2:52 AM,14.0,10.0,84,30.37,10.0,NNW,5.8,-,N/A,,Clear,330,2013-03-05 09:52:00
3:52 AM,12.0,8.1,84,30.40,10.0,NW,4.6,-,N/A,,Clear,320,2013-03-05 10:52:00
4:52 AM,12.0,7.0,80,30.42,10.0,NNW,3.5,-,N/A,,Clear,330,2013-03-05 11:52:00
5:52 AM,10.0,5.0,80,30.44,10.0,ENE,4.6,-,N/A,,Clear,60,2013-03-05 12:52:00
6:52 AM,10.9,7.0,84,30.45,10.0,Calm,Calm,-,N/A,,Clear,0,2013-03-05 13:52:00
7:52 AM,16.0,10.0,77,30.45,10.0,Calm,Calm,-,N/A,,Clear,0,2013-03-05 14:52:00
8:52 AM,19.0,10.0,68,30.47,10.0,Calm,Calm,-,N/A,,Clear,0,2013-03-05 15:52:00
9:52 AM,24.1,10.0,55,30.45,10.0,NW,6.9,-,N/A,,Clear,310,2013-03-05 16:52:00
10:52 AM,26.1,9.0,49,30.43,10.0,North,4.6,-,N/A,,Clear,10,2013-03-05 17:52:00
11:52 AM,28.9,8.1,41,30.43,10.0,Variable,3.5,-,N/A,,Clear,0,2013-03-05 18:52:00
12:52 PM,32.0,5.0,32,30.38,10.0,NE,8.1,-,N/A,,Clear,40,2013-03-05 19:52:00
1:52 PM,34.0,3.9,28,30.37,10.0,Variable,5.8,-,N/A,,Clear,0,2013-03-05 20:52:00
2:52 PM,35.1,6.1,30,30.36,10.0,Variable,3.5,-,N/A,,Clear,0,2013-03-05 21:52:00
3:52 PM,34.0,5.0,30,30.37,10.0,East,5.8,-,N/A,,Clear,80,2013-03-05 22:52:00
4:52 PM,33.1,7.0,34,30.37,10.0,ENE,6.9,-,N/A,,Clear,70,2013-03-05 23:52:00
5:52 PM,28.0,10.0,47,30.37,10.0,East,8.1,-,N/A,,Clear,80,2013-03-06 00:52:00
6:52 PM,24.1,12.0,60,30.38,10.0,East,9.2,-,N/A,,Clear,90,2013-03-06 01:52:00
7:52 PM,23.0,14.0,68,30.36,10.0,East,6.9,-,N/A,,Clear,80,2013-03-06 02:52:00
8:52 PM,23.0,14.0,68,30.36,10.0,Calm,Calm,-,N/A,,Clear,0,2013-03-06 03:52:00
9:52 PM,23.0,12.9,65,30.35,10.0,Calm,Calm,-,N/A,,Clear,0,2013-03-06 04:52:00
10:52 PM,21.9,12.9,68,30.32,10.0,ESE,6.9,-,N/A,,Clear,120,2013-03-06 05:52:00
11:52 PM,21.9,12.9,68,30.30,10.0,ESE,8.1,-,N/A,,Clear,120,2013-03-06 06:52:00